Time;durP1;ratioP1;P1;durP2;ratioP2;P2;SDS_P1;SDS_P2;PMS_P1;PMS_P2;Temp;Humidity;BMP_temperature;BMP_pressure;BME280_temperature;BME280_humidity;BME280_pressure;Samples;Min_cycle;Max_cycle;Signal;HPM_P1;HPM_P2
2024/01/25 00:33:33;;;;;;;4.30;1.38;;;;;;;13.36;100.00;100340.44;6247623;22;20028;-85
2024/01/25 00:36:03;;;;;;;4.18;0.77;;;;;;;13.39;100.00;100343.06;6248284;23;20535;-87
2024/01/25 00:38:32;;;;;;;3.13;0.75;;;;;;;13.36;100.00;100348.25;6248906;23;20103;-84
2024/01/25 00:41:01;;;;;;;3.95;0.80;;;;;;;13.33;100.00;100343.00;6249076;23;20019;-85
2024/01/25 00:43:39;;;;;;;3.13;1.00;;;;;;;13.32;100.00;100342.13;6249142;23;20016;-86
2024/01/25 00:46:08;;;;;;;3.42;0.65;;;;;;;13.37;100.00;100355.19;6248904;23;20016;-85
2024/01/25 00:48:40;;;;;;;3.88;1.25;;;;;;;13.35;100.00;100349.97;6248457;23;20031;-86
2024/01/25 00:51:17;;;;;;;8.00;1.17;;;;;;;13.34;100.00;100350.81;6248753;23;20060;-84
2024/01/25 00:53:47;;;;;;;4.45;0.98;;;;;;;13.36;100.00;100363.84;6247627;23;20012;-86
2024/01/25 01:35:00;;;;;;;3.95;1.05;;;;;;;12.15;100.00;100405.31;6248050;22;20020;-89
2024/01/25 02:00:55;;;;;;;11.07;0.93;;;;;;;11.53;100.00;100425.72;6244609;22;20397;-88
2024/01/25 02:39:38;;;;;;;2.75;0.85;;;;;;;10.73;100.00;100449.84;6245125;22;20016;-84
2024/01/25 02:42:13;;;;;;;3.33;0.70;;;;;;;10.74;100.00;100453.28;6244484;23;20023;-86
2024/01/25 02:44:42;;;;;;;5.97;0.70;;;;;;;10.73;100.00;100452.44;6242840;23;20020;-85
2024/01/25 03:07:56;;;;;;;21.30;9.20;;;;;;;10.50;100.00;100451.88;6243643;22;20020;-84
2024/01/25 03:10:25;;;;;;;8.05;1.20;;;;;;;10.44;100.00;100451.72;6241268;23;20077;-84
2024/01/25 03:13:00;;;;;;;31.55;7.50;;;;;;;10.40;100.00;100450.78;6233331;23;20594;-85
2024/01/25 03:15:28;;;;;;;12.65;3.60;;;;;;;10.42;100.00;100459.44;6238151;23;20107;-84
2024/01/25 03:17:57;;;;;;;2.50;1.00;;;;;;;10.39;100.00;100453.31;6238139;23;20043;-85
2024/01/25 03:20:29;;;;;;;5.38;1.52;;;;;;;10.34;100.00;100460.09;6242251;23;20016;-84
2024/01/25 03:23:03;;;;;;;2.42;0.70;;;;;;;10.32;100.00;100466.94;6244060;23;20016;-84
2024/01/25 03:25:31;;;;;;;5.80;1.40;;;;;;;10.31;100.00;100465.16;6245380;23;20027;-83
2024/01/25 03:28:00;;;;;;;1.80;1.05;;;;;;;10.31;100.00;100480.66;6246442;23;20023;-84
2024/01/25 03:30:29;;;;;;;0.73;0.50;;;;;;;10.31;100.00;100488.44;6245717;23;20066;-84
2024/01/25 03:33:00;;;;;;;5.00;0.95;;;;;;;10.30;100.00;100481.53;6245845;23;20070;-84
2024/01/25 03:35:29;;;;;;;3.38;0.40;;;;;;;10.23;100.00;100478.72;6244159;23;20099;-84
2024/01/25 03:37:59;;;;;;;3.80;0.70;;;;;;;10.18;100.00;100476.88;6245243;23;20044;-84
2024/01/25 03:40:30;;;;;;;5.40;0.70;;;;;;;10.19;100.00;100476.03;6246405;23;20089;-84
2024/01/25 03:43:09;;;;;;;2.03;0.80;;;;;;;10.12;100.00;100462.06;6247896;23;20103;-83
2024/01/25 03:45:38;;;;;;;8.20;0.80;;;;;;;10.13;100.00;100475.88;6247142;23;20047;-84
2024/01/25 03:48:09;;;;;;;1.45;0.50;;;;;;;10.14;100.00;100468.16;6246877;23;20074;-83
2024/01/25 03:50:49;;;;;;;4.97;0.50;;;;;;;10.16;100.00;100471.66;6248590;23;20054;-84
2024/01/25 03:53:20;;;;;;;2.58;0.70;;;;;;;10.15;100.00;100472.50;6246906;23;20020;-84
2024/01/25 03:55:50;;;;;;;1.30;0.43;;;;;;;10.17;100.00;100483.75;6247221;23;20070;-84
2024/01/25 03:58:33;;;;;;;1.90;0.55;;;;;;;10.17;100.00;100488.94;6247203;23;20020;-83
2024/01/25 04:01:03;;;;;;;3.70;1.10;;;;;;;10.19;100.00;100518.31;6245551;23;20066;-84
2024/01/25 04:03:32;;;;;;;3.58;1.17;;;;;;;10.14;100.00;100566.41;6244971;23;20459;-83
2024/01/25 04:06:07;;;;;;;8.73;2.50;;;;;;;10.10;100.00;100574.91;6245130;23;20016;-83
2024/01/25 04:08:38;;;;;;;5.63;1.33;;;;;;;10.02;100.00;100595.38;6244912;23;20066;-83
2024/01/25 04:11:09;;;;;;;3.22;1.67;;;;;;;9.98;100.00;100588.34;6245536;23;20024;-83
2024/01/25 04:13:38;;;;;;;3.28;0.77;;;;;;;9.93;100.00;100591.63;6240515;23;20044;-83
2024/01/25 04:16:09;;;;;;;3.85;0.32;;;;;;;9.92;100.00;100600.22;6240145;23;20071;-84
2024/01/25 04:18:38;;;;;;;2.58;0.55;;;;;;;9.84;100.00;100592.25;6242992;23;20016;-83
2024/01/25 04:21:07;;;;;;;2.45;0.50;;;;;;;9.78;100.00;100598.13;6244938;23;20023;-84
2024/01/25 04:23:37;;;;;;;3.20;0.45;;;;;;;9.72;100.00;100592.75;6245229;23;20016;-84
2024/01/25 04:26:12;;;;;;;1.38;0.40;;;;;;;9.70;100.00;100593.53;6245497;23;20019;-84
2024/01/25 04:28:41;;;;;;;0.80;0.40;;;;;;;9.70;100.00;100589.25;6245437;23;20022;-85
2024/01/25 04:31:13;;;;;;;0.50;0.28;;;;;;;9.60;100.00;100613.06;6244113;23;20020;-83
2024/01/25 04:36:24;;;;;;;0.68;0.35;;;;;;;9.50;100.00;100611.00;6242591;23;20261;-85
2024/01/25 04:39:04;;;;;;;1.05;0.30;;;;;;;9.43;100.00;100610.78;6245010;23;20020;-86
2024/01/25 04:41:33;;;;;;;0.30;0.30;;;;;;;9.32;100.00;100600.94;6244631;23;20027;-84
2024/01/25 04:44:02;;;;;;;0.63;0.20;;;;;;;9.29;100.00;100598.28;6243078;23;20040;-84
2024/01/25 04:46:36;;;;;;;2.42;0.38;;;;;;;9.23;100.00;100591.19;6244265;23;20024;-84
2024/01/25 04:49:13;;;;;;;2.63;0.20;;;;;;;9.19;100.00;100586.78;6244578;23;20023;-84
2024/01/25 04:51:42;;;;;;;0.98;0.30;;;;;;;9.16;100.00;100582.41;6246080;23;20016;-86
2024/01/25 05:48:42;;;;;;;0.20;0.10;;;;;;;8.57;100.00;100615.69;6242145;22;20361;31
2024/01/25 05:51:22;;;;;;;0.43;0.10;;;;;;;8.54;100.00;100628.47;6185587;23;20025;-85
2024/01/25 06:56:25;;;;;;;2.30;0.57;;;;;;;8.31;100.00;100680.84;6245583;22;20023;-85
2024/01/25 06:58:53;;;;;;;0.80;0.30;;;;;;;8.28;100.00;100675.59;6246512;23;20059;-85
2024/01/25 07:01:32;;;;;;;0.98;0.20;;;;;;;8.24;100.00;100671.13;6246187;23;20460;-83
2024/01/25 07:04:01;;;;;;;0.95;0.50;;;;;;;8.25;100.00;100683.22;6245872;23;20043;-85
2024/01/25 07:06:30;;;;;;;3.72;0.63;;;;;;;8.23;100.00;100692.59;6245938;23;20020;-84
2024/01/25 07:08:59;;;;;;;0.30;0.20;;;;;;;8.25;100.00;100691.81;6244336;23;20104;-84
2024/01/25 07:11:32;;;;;;;0.22;0.22;;;;;;;8.31;100.00;100704.91;6245579;23;20020;-84
2024/01/25 07:14:01;;;;;;;1.83;0.80;;;;;;;8.33;100.00;100702.41;6240532;23;20078;-85
2024/01/25 07:16:30;;;;;;;1.00;0.32;;;;;;;8.40;100.00;100707.00;6240677;23;20023;-85
2024/01/25 07:18:59;;;;;;;2.72;0.60;;;;;;;8.40;100.00;100707.00;6243490;23;20016;-85
2024/01/25 07:21:33;;;;;;;2.40;0.38;;;;;;;8.45;100.00;100714.91;6244687;23;20020;-85
2024/01/25 07:24:04;;;;;;;2.95;0.65;;;;;;;8.43;100.00;100709.72;6245244;23;20020;-85
2024/01/25 07:26:36;;;;;;;2.72;0.50;;;;;;;8.50;100.00;100719.44;6245867;23;20016;-84
2024/01/25 07:29:12;;;;;;;1.95;0.80;;;;;;;8.53;100.00;100723.84;6245436;23;20047;-85
2024/01/25 07:31:41;;;;;;;0.43;0.35;;;;;;;8.55;100.00;100729.94;6245610;23;20016;-84
2024/01/25 07:34:10;;;;;;;7.07;1.00;;;;;;;8.56;100.00;100735.13;6245330;23;20013;-85
2024/01/25 07:36:38;;;;;;;2.00;0.50;;;;;;;8.54;100.00;100736.78;6246723;23;20024;-84
2024/01/25 07:39:11;;;;;;;0.65;0.43;;;;;;;8.56;100.00;100740.28;6245216;23;20078;-84
2024/01/25 07:41:42;;;;;;;4.18;0.55;;;;;;;8.62;100.00;100743.94;6246022;23;20012;-84
2024/01/25 07:44:10;;;;;;;6.40;0.50;;;;;;;8.64;100.00;100750.03;6244722;23;20066;-84
2024/01/25 07:46:39;;;;;;;1.58;0.50;;;;;;;8.69;100.00;100751.06;6245306;23;20020;-85
2024/01/25 07:49:08;;;;;;;3.58;0.60;;;;;;;8.74;100.00;100752.09;6244794;23;20027;-84
2024/01/25 07:51:40;;;;;;;2.03;0.63;;;;;;;8.78;100.00;100751.41;6244791;23;20344;-86
2024/01/25 07:56:48;;;;;;;5.07;1.10;;;;;;;8.79;100.00;100750.56;6251213;22;20326;-85
2024/01/25 08:04:33;;;;;;;2.60;0.70;;;;;;;8.75;100.00;100736.69;6243125;22;20356;-85
2024/01/25 08:07:05;;;;;;;3.33;0.57;;;;;;;8.75;100.00;100744.44;6244653;23;20013;-85
2024/01/25 08:09:34;;;;;;;1.90;0.70;;;;;;;8.74;100.00;100739.22;6244807;23;20054;-85
2024/01/25 08:12:05;;;;;;;4.88;0.63;;;;;;;8.69;100.00;100733.88;6245393;23;20035;-86
2024/01/25 08:14:46;;;;;;;1.40;0.65;;;;;;;8.64;100.00;100722.53;6238711;23;20020;-84
2024/01/25 08:17:15;;;;;;;2.15;0.40;;;;;;;8.59;100.00;100721.50;6239786;23;20024;-85
2024/01/25 08:19:44;;;;;;;4.60;0.80;;;;;;;8.56;100.00;100723.94;6244334;23;20042;-84
2024/01/25 08:22:22;;;;;;;1.75;0.40;;;;;;;8.57;100.00;100729.16;6245266;23;20070;-86
2024/01/25 08:24:53;;;;;;;1.40;0.57;;;;;;;8.57;100.00;100725.72;6244248;23;20099;-85
2024/01/25 08:27:23;;;;;;;8.98;1.63;;;;;;;8.59;100.00;100724.94;6245173;23;20063;-84
2024/01/25 08:29:54;;;;;;;3.67;0.52;;;;;;;8.59;100.00;100724.94;6246200;23;20016;-84
2024/01/25 08:32:30;;;;;;;3.08;1.23;;;;;;;8.65;100.00;100728.56;6246362;23;20020;-84
2024/01/25 08:34:59;;;;;;;1.13;0.40;;;;;;;8.65;100.00;100729.44;6245292;23;20017;-84
2024/01/25 08:37:28;;;;;;;3.95;1.05;;;;;;;8.66;100.00;100735.47;6245512;23;20024;-84
2024/01/25 08:40:00;;;;;;;2.92;0.73;;;;;;;8.68;100.00;100732.16;6245209;23;20099;-84
2024/01/25 08:42:30;;;;;;;5.60;0.60;;;;;;;8.67;100.00;100727.78;6245817;23;20012;-83
2024/01/25 08:44:59;;;;;;;6.35;0.93;;;;;;;8.67;100.00;100721.75;6245155;23;20099;-83
2024/01/25 08:47:28;;;;;;;2.75;0.60;;;;;;;8.71;100.00;100728.78;6246200;23;20024;-84
2024/01/25 08:49:56;;;;;;;3.83;0.85;;;;;;;8.75;100.00;100735.78;6245813;23;20016;-84
2024/01/25 08:52:33;;;;;;;6.88;1.13;;;;;;;8.73;100.00;100742.63;6245840;23;20486;-84
2024/01/25 08:55:01;;;;;;;3.28;0.52;;;;;;;8.73;100.00;100742.63;6245008;23;20471;-84
2024/01/25 08:57:32;;;;;;;8.60;1.13;;;;;;;8.69;100.00;100740.75;6245010;23;20070;-83
2024/01/25 09:00:10;;;;;;;7.15;0.80;;;;;;;8.70;100.00;100757.97;6245253;23;20019;-83
2024/01/25 09:02:39;;;;;;;5.88;0.60;;;;;;;8.67;100.00;100758.75;6246498;23;20024;-85
2024/01/25 09:05:12;;;;;;;4.57;0.52;;;;;;;8.64;100.00;100756.06;6246297;23;20043;-84
2024/01/25 09:07:50;;;;;;;;;;;;;;;;;;;;;
2024/01/25 09:10:19;;;;;;;2.90;0.47;;;;;;;8.64;100.00;100761.22;6245063;23;20379;-84
2024/01/25 09:12:50;;;;;;;5.00;0.50;;;;;;;8.64;100.00;100763.78;6244118;23;20036;-86
2024/01/25 09:15:19;;;;;;;3.90;0.60;;;;;;;8.65;100.00;100762.97;6241526;23;20009;-85
2024/01/25 09:17:50;;;;;;;2.63;0.47;;;;;;;8.67;100.00;100769.06;6242626;23;20025;-85
2024/01/25 09:20:19;;;;;;;1.13;0.30;;;;;;;8.65;100.00;100765.53;6247285;23;20102;-86
2024/01/25 09:22:48;;;;;;;3.17;0.60;;;;;;;8.69;100.00;100766.53;6246876;23;20048;-85
2024/01/25 09:25:16;;;;;;;0.45;0.15;;;;;;;8.70;100.00;100773.44;6246576;23;20031;-85
2024/01/25 09:27:48;;;;;;;4.13;0.52;;;;;;;8.71;100.00;100776.09;6246055;23;20040;-85
2024/01/25 09:30:21;;;;;;;4.43;0.40;;;;;;;8.74;100.00;100775.31;6247653;23;20103;-85
2024/01/25 09:32:50;;;;;;;2.40;0.30;;;;;;;8.71;100.00;100781.25;6247317;23;20020;-84
2024/01/25 09:35:19;;;;;;;3.30;0.47;;;;;;;8.75;100.00;100787.38;6247377;23;20047;-85
2024/01/25 09:37:58;;;;;;;1.45;0.50;;;;;;;8.76;100.00;100789.16;6246663;23;20035;-86
2024/01/25 09:40:26;;;;;;;1.05;0.47;;;;;;;8.75;100.00;100789.97;6246671;23;20024;-86
2024/01/25 09:42:56;;;;;;;2.63;0.50;;;;;;;8.75;100.00;100788.28;6248045;23;20020;-85
2024/01/25 09:45:32;;;;;;;2.03;0.30;;;;;;;8.76;100.00;100802.94;6246747;23;20023;-85
2024/01/25 09:48:04;;;;;;;1.75;0.63;;;;;;;8.76;100.00;100799.47;6247973;23;20016;-85
2024/01/25 09:50:33;;;;;;;3.03;0.50;;;;;;;8.74;100.00;100801.13;6247047;23;20012;-85
2024/01/25 09:53:05;;;;;;;0.40;0.25;;;;;;;8.74;100.00;100811.44;6247355;23;20107;-86
2024/01/25 09:55:44;;;;;;;0.40;0.40;;;;;;;8.73;100.00;100809.69;6246781;23;20018;-83
2024/01/25 09:58:13;;;;;;;0.63;0.22;;;;;;;8.69;100.00;100818.13;6246956;23;20016;-86
2024/01/25 10:00:44;;;;;;;1.02;0.20;;;;;;;8.66;100.00;100820.56;6246654;23;20099;-85
2024/01/25 10:03:20;;;;;;;2.42;0.30;;;;;;;8.57;100.00;100814.25;6246496;23;20031;-86
2024/01/25 10:05:49;;;;;;;4.47;0.80;;;;;;;8.56;100.00;100811.63;6248023;23;20043;-85
2024/01/25 10:08:18;;;;;;;5.28;0.50;;;;;;;8.57;100.00;100819.44;6246333;23;20016;-85
2024/01/25 10:10:47;;;;;;;0.85;0.30;;;;;;;8.57;100.00;100814.25;6246918;23;20095;-85
2024/01/25 10:13:23;;;;;;;1.70;0.25;;;;;;;8.62;100.00;100819.59;6242990;23;20051;-85
2024/01/25 10:26:24;;;;;;;2.80;0.65;;;;;;;8.63;100.00;100835.94;6249623;22;20019;-85
2024/01/25 10:28:57;;;;;;;2.70;0.55;;;;;;;8.65;100.00;100839.47;6246939;23;20027;-85
2024/01/25 10:31:26;;;;;;;0.13;0.13;;;;;;;8.71;100.00;100845.75;6247712;23;20016;-85
2024/01/25 10:34:02;;;;;;;1.02;0.77;;;;;;;8.73;100.00;100844.09;6247070;23;20087;-86
2024/01/25 10:36:31;;;;;;;2.08;0.30;;;;;;;8.76;100.00;100857.13;6247419;23;20047;-84
2024/01/25 10:39:01;;;;;;;0.28;0.10;;;;;;;8.73;100.00;100843.25;6248406;23;20016;-86
2024/01/25 10:41:34;;;;;;;1.42;0.20;;;;;;;8.70;100.00;100850.84;6248613;23;20024;-86
2024/01/25 10:44:06;;;;;;;3.50;0.30;;;;;;;8.74;100.00;100857.88;6247448;23;20047;-85
2024/01/25 10:46:36;;;;;;;2.33;0.82;;;;;;;8.74;100.00;100863.91;6247648;23;20087;-85
2024/01/25 10:49:06;;;;;;;12.00;0.95;;;;;;;8.75;100.00;100860.53;6247637;23;20024;-86
2024/01/25 10:51:49;;;;;;;2.28;0.32;;;;;;;8.76;100.00;100856.25;6246490;23;20013;-85
2024/01/25 10:54:19;;;;;;;0.28;0.20;;;;;;;8.82;100.00;100861.66;6246975;23;20455;-86
2024/01/25 10:56:50;;;;;;;0.77;0.20;;;;;;;8.87;100.00;100860.13;6247301;23;20027;-85
2024/01/25 10:59:27;;;;;;;1.30;0.60;;;;;;;8.92;100.00;100863.75;6247801;23;20108;-86
2024/01/25 11:01:57;;;;;;;1.58;0.65;;;;;;;8.96;100.00;100870.78;6247499;23;20074;-86
2024/01/25 11:04:26;;;;;;;2.25;0.77;;;;;;;9.02;100.00;100871.03;6246883;23;20459;-86
2024/01/25 11:06:58;;;;;;;1.48;0.30;;;;;;;9.07;100.00;100865.13;6246282;23;20023;-85
2024/01/25 11:09:30;;;;;;;1.37;0.37;;;;;;;9.11;100.00;100867.00;6247775;23;20016;-85
2024/01/25 11:12:01;;;;;;;0.30;0.10;;;;;;;9.13;100.00;100865.38;6247160;23;20818;-87
2024/01/25 11:14:31;;;;;;;4.20;0.73;;;;;;;9.16;100.00;100878.38;6244972;22;20032;-86
2024/01/25 11:32:32;;;;;;;5.97;0.65;;;;;;;9.28;100.00;100888.28;6248181;22;20122;-85
2024/01/25 11:35:01;;;;;;;7.30;0.98;;;;;;;9.26;100.00;100882.19;6247027;23;20039;-86
2024/01/25 11:37:30;;;;;;;4.28;0.63;;;;;;;9.29;100.00;100884.88;6248462;23;20020;-86
2024/01/25 11:42:41;;;;;;;5.63;0.80;;;;;;;9.24;100.00;100882.13;6245913;23;20028;-86
2024/01/25 11:45:11;;;;;;;6.15;0.68;;;;;;;9.25;100.00;100883.00;6246909;23;20027;-85
2024/01/25 11:47:49;;;;;;;4.85;0.55;;;;;;;9.15;100.00;100868.88;6246492;23;20047;-84
2024/01/25 11:50:17;;;;;;;2.25;0.60;;;;;;;9.08;100.00;100877.22;6247264;23;20016;-87
2024/01/25 11:52:46;;;;;;;6.63;0.82;;;;;;;9.10;100.00;100883.34;6246703;23;20023;-85
2024/01/25 11:55:15;;;;;;;6.18;0.93;;;;;;;9.10;100.00;100894.53;6247050;23;20047;-85
2024/01/25 11:57:56;;;;;;;3.15;0.60;;;;;;;9.02;100.00;100883.03;6246814;23;20051;-85
2024/01/25 12:00:25;;;;;;;6.03;0.95;;;;;;;9.02;100.00;100896.84;6247074;23;20064;-86
2024/01/25 12:02:56;;;;;;;0.80;0.70;;;;;;;9.00;100.00;100890.72;6247954;23;20016;-86
2024/01/25 12:05:31;;;;;;;2.97;0.52;;;;;;;9.03;100.00;100887.38;6248393;23;20016;-85
2024/01/25 12:08:00;;;;;;;2.75;0.85;;;;;;;9.03;100.00;100897.72;6248280;23;20032;-85
2024/01/25 12:10:29;;;;;;;6.03;0.68;;;;;;;9.05;100.00;100901.22;6248504;23;20016;-86
2024/01/25 12:13:15;;;;;;;5.18;1.13;;;;;;;9.04;100.00;100908.91;6245138;23;20024;-86
2024/01/25 12:15:47;;;;;;;7.43;1.30;;;;;;;9.02;100.00;100902.00;6243085;23;20391;-86
2024/01/25 12:18:18;;;;;;;5.88;0.70;;;;;;;9.08;100.00;100910.78;6245443;23;20075;-85
2024/01/25 12:28:42;;;;;;;4.88;1.00;;;;;;;9.12;100.00;100923.88;6222484;22;20012;-86
2024/01/25 12:39:14;;;;;;;5.65;0.90;;;;;;;9.02;100.00;100922.66;6219328;22;20020;-86
2024/01/25 12:41:43;;;;;;;4.15;1.27;;;;;;;9.07;100.00;100939.97;6217135;23;20099;-86
2024/01/25 12:44:12;;;;;;;8.52;2.90;;;;;;;9.06;100.00;100940.81;6216815;23;20021;-85
2024/01/25 12:46:44;;;;;;;2.58;1.00;;;;;;;9.05;100.00;100944.19;6217417;23;20024;-85
2024/01/25 12:49:15;;;;;;;4.80;0.95;;;;;;;9.01;100.00;100944.09;6217065;23;20033;-85
2024/01/25 12:51:44;;;;;;;4.63;1.00;;;;;;;9.01;100.00;100954.41;6216916;23;20021;-85
2024/01/25 12:54:18;;;;;;;7.38;1.00;;;;;;;8.97;100.00;100955.13;6216266;23;20031;-87
2024/01/25 13:07:07;;;;;;;6.28;0.85;;;;;;;9.01;100.00;100977.66;6222820;23;20309;-86
2024/01/25 13:09:38;;;;;;;1.98;0.75;;;;;;;9.05;100.00;100985.50;6246807;23;20036;-86
2024/01/25 13:12:17;;;;;;;6.55;0.85;;;;;;;9.04;100.00;100976.00;6246527;23;20016;-86
2024/01/25 13:20:00;;;;;;;4.03;0.70;;;;;;;8.92;100.00;100969.53;6252788;22;20450;-85
2024/01/25 13:22:29;;;;;;;;;;;;;;;8.93;100.00;100983.31;6247449;23;20016;-86
2024/01/25 13:25:00;;;;;;;4.60;1.10;;;;;;;8.92;100.00;100982.44;6246783;23;19923;-85
2024/01/25 13:27:37;;;;;;;5.15;0.82;;;;;;;8.90;100.00;100978.91;6247880;23;20020;-85
2024/01/25 13:30:07;;;;;;;7.93;0.88;;;;;;;8.90;100.00;100978.91;6246963;23;20023;-84
2024/01/25 13:32:36;;;;;;;2.55;0.50;;;;;;;8.89;100.00;100977.19;6246504;23;20016;-84
2024/01/25 13:35:15;;;;;;;3.85;1.20;;;;;;;8.93;100.00;100983.31;6247523;23;20310;-86
2024/01/25 13:37:44;;;;;;;2.15;0.70;;;;;;;8.89;100.00;100984.03;6247448;23;20456;-86
2024/01/25 13:40:16;;;;;;;3.60;0.70;;;;;;;8.88;100.00;100990.88;6247305;23;20020;-85
2024/01/25 13:42:45;;;;;;;2.00;0.45;;;;;;;8.88;100.00;100988.31;6247310;23;20024;-85
2024/01/25 13:45:19;;;;;;;3.30;0.52;;;;;;;8.91;100.00;101000.44;6247622;23;20087;-85
2024/01/25 13:47:48;;;;;;;2.78;0.57;;;;;;;8.95;100.00;100998.03;6247252;23;20020;-86
2024/01/25 13:50:17;;;;;;;3.20;0.63;;;;;;;8.95;100.00;101007.50;6246174;23;20040;-85
2024/01/25 13:52:46;;;;;;;2.47;0.45;;;;;;;8.94;100.00;101001.47;6247784;23;20350;-84
2024/01/25 13:55:24;;;;;;;3.70;0.80;;;;;;;8.96;100.00;101014.44;6246370;23;20020;-84
2024/01/25 13:57:53;;;;;;;2.13;0.90;;;;;;;8.97;100.00;101017.06;6245926;23;20016;-86
2024/01/25 14:00:22;;;;;;;5.03;0.80;;;;;;;8.96;100.00;101023.06;6246504;23;20068;-83
2024/01/25 14:02:51;;;;;;;1.48;0.80;;;;;;;8.98;100.00;101023.13;6245225;23;20020;-83
2024/01/25 14:05:22;;;;;;;3.50;0.70;;;;;;;8.99;100.00;101033.50;6245995;23;20012;-84
2024/01/25 14:07:51;;;;;;;2.38;0.63;;;;;;;9.00;100.00;101036.94;6246960;23;20012;-86
2024/01/25 14:10:22;;;;;;;4.25;0.90;;;;;;;8.98;100.00;101036.91;6247535;23;20328;-85
2024/01/25 14:15:28;;;;;;;3.45;0.85;;;;;;;8.95;100.00;101038.47;6226380;22;20035;-84
2024/01/25 14:43:53;;;;;;;1.40;0.60;;;;;;;8.83;100.00;101054.34;6230987;22;19915;-86
2024/01/25 14:46:22;;;;;;;7.32;0.80;;;;;;;8.86;100.00;101051.88;6245941;23;20059;-87
2024/01/25 15:01:51;;;;;;;4.10;0.68;;;;;;;8.91;100.00;101060.69;6229542;22;20024;-87
2024/01/25 15:04:29;;;;;;;3.60;0.43;;;;;;;9.00;100.00;101073.97;6246022;23;20020;-86
2024/01/25 15:06:58;;;;;;;2.72;0.80;;;;;;;9.05;100.00;101083.59;6247047;23;20479;-86
2024/01/25 15:14:37;;;;;;;2.00;0.88;;;;;;;9.15;100.00;101084.03;6237441;22;20020;-86
2024/01/25 15:19:47;;;;;;;6.32;0.90;;;;;;;9.13;100.00;101084.78;6237542;22;20020;-83
2024/01/25 15:22:16;;;;;;;2.33;0.70;;;;;;;9.11;100.00;101084.72;6245353;23;20091;-83
2024/01/25 15:24:45;;;;;;;4.97;0.95;;;;;;;9.12;100.00;101089.09;6247119;23;20021;-83
2024/01/25 15:27:14;;;;;;;5.38;0.90;;;;;;;9.12;100.00;101093.38;6245052;23;20012;-84
2024/01/25 15:29:51;;;;;;;2.20;0.82;;;;;;;9.14;100.00;101091.69;6246776;23;20055;-82
2024/01/25 15:32:20;;;;;;;5.05;0.85;;;;;;;9.14;100.00;101107.19;6245933;23;20020;-84
2024/01/25 15:34:51;;;;;;;2.03;0.45;;;;;;;9.14;100.00;101104.63;6245850;23;20102;-89
2024/01/25 15:37:30;;;;;;;10.35;1.08;;;;;;;9.14;100.00;101102.94;6249398;23;20020;-86
2024/01/25 15:40:08;;;;;;;2.50;0.82;;;;;;;9.15;100.00;101114.13;6249341;23;20075;-89
2024/01/25 15:42:41;;;;;;;1.48;0.52;;;;;;;9.21;100.00;101114.41;6250079;23;20039;-88
2024/01/25 15:45:14;;;;;;;1.50;0.60;;;;;;;9.21;100.00;101111.81;6249342;23;20070;-87
2024/01/25 15:47:43;;;;;;;2.53;0.75;;;;;;;9.24;100.00;101119.69;6249371;23;20016;-86
2024/01/25 15:50:14;;;;;;;5.20;1.00;;;;;;;9.26;100.00;101130.94;6247385;23;20036;-87
2024/01/25 15:52:50;;;;;;;3.17;0.63;;;;;;;9.28;100.00;101125.81;6246703;23;20020;-83
2024/01/25 15:55:19;;;;;;;2.45;0.75;;;;;;;9.28;100.00;101126.75;6247142;23;20016;-84
2024/01/25 15:57:48;;;;;;;0.85;0.40;;;;;;;9.30;100.00;101129.34;6246752;23;20016;-85
2024/01/25 16:00:18;;;;;;;3.42;0.70;;;;;;;9.33;100.00;101150.16;6244768;23;20017;-84
2024/01/25 16:02:56;;;;;;;0.85;0.40;;;;;;;9.37;100.00;101142.59;6247120;23;20063;-82
2024/01/25 16:05:26;;;;;;;11.40;1.60;;;;;;;9.41;100.00;101146.16;6246323;23;20016;-84
2024/01/25 16:07:55;;;;;;;4.10;1.67;;;;;;;9.37;100.00;101141.72;6248080;23;20020;-84
2024/01/25 16:10:25;;;;;;;10.57;1.02;;;;;;;9.40;100.00;101152.16;6248282;23;20024;-84
2024/01/25 16:12:57;;;;;;;4.90;1.10;;;;;;;9.42;100.00;101150.53;6245250;23;20036;-84
2024/01/25 16:15:27;;;;;;;6.80;1.23;;;;;;;9.48;100.00;101165.38;6243078;23;20090;-85
2024/01/25 16:17:56;;;;;;;4.53;0.88;;;;;;;9.49;100.00;101162.00;6245017;23;20528;-85
2024/01/25 16:20:39;;;;;;;4.80;0.80;;;;;;;9.54;100.00;101165.63;6247722;23;20043;-85
2024/01/25 16:23:07;;;;;;;2.67;0.73;;;;;;;9.59;100.00;101171.88;6246954;23;20099;-83
2024/01/25 16:25:37;;;;;;;3.67;0.77;;;;;;;9.62;100.00;101177.16;6248102;23;20016;-85
2024/01/25 16:28:14;;;;;;;3.30;0.80;;;;;;;9.60;100.00;101168.47;6247851;23;20078;-85
2024/01/25 16:30:43;;;;;;;2.35;0.90;;;;;;;9.65;100.00;101177.28;6247582;23;20078;-86
2024/01/25 16:33:12;;;;;;;3.08;0.90;;;;;;;9.64;100.00;101175.50;6249545;23;20016;-85
2024/01/25 16:35:58;;;;;;;4.55;1.17;;;;;;;9.67;100.00;101177.31;6249174;23;20131;-85
2024/01/25 16:38:27;;;;;;;5.03;0.80;;;;;;;9.65;100.00;101177.28;6248822;23;20044;-84
2024/01/25 16:40:55;;;;;;;4.68;0.95;;;;;;;9.69;100.00;101186.03;6247285;23;20051;-85
2024/01/25 16:43:24;;;;;;;4.80;0.68;;;;;;;9.71;100.00;101185.28;6246994;23;20456;-84
2024/01/25 16:46:02;;;;;;;4.50;0.60;;;;;;;9.69;100.00;101186.94;6247556;23;20047;-84
2024/01/25 16:48:33;;;;;;;9.18;1.05;;;;;;;9.64;100.00;101183.25;6247354;23;20070;-85
2024/01/25 16:51:04;;;;;;;4.43;0.63;;;;;;;9.67;100.00;101193.75;6248823;23;20059;-84
2024/01/25 16:53:43;;;;;;;2.58;1.40;;;;;;;9.66;100.00;101184.22;6248005;23;20019;-85
2024/01/25 16:56:12;;;;;;;3.75;0.80;;;;;;;9.67;100.00;101193.75;6247345;23;20066;-84
2024/01/25 16:58:43;;;;;;;1.08;0.60;;;;;;;9.72;100.00;101201.69;6247727;23;20455;-85
2024/01/25 17:01:19;;;;;;;1.43;0.43;;;;;;;9.71;100.00;101205.06;6248924;23;20123;-84
2024/01/25 17:03:48;;;;;;;5.03;0.90;;;;;;;9.71;100.00;101208.56;6248368;23;20051;-85
2024/01/25 17:06:19;;;;;;;10.15;2.42;;;;;;;9.72;100.00;101225.81;6247913;23;20020;-85
2024/01/25 17:08:47;;;;;;;6.45;0.98;;;;;;;9.71;100.00;101217.97;6248034;23;20460;-84
2024/01/25 17:11:26;;;;;;;2.60;0.52;;;;;;;9.73;100.00;101219.81;6247632;23;20483;-85
2024/01/25 17:13:58;;;;;;;5.88;1.27;;;;;;;9.73;100.00;101224.97;6243086;23;20452;-84
2024/01/25 17:16:27;;;;;;;;;;;;;;;9.74;100.00;101226.75;6243118;23;20028;-84
2024/01/25 17:19:02;;;;;;;1.27;0.73;;;;;;;9.77;100.00;101228.56;6246109;23;19926;-84
2024/01/25 17:21:32;;;;;;;2.88;0.85;;;;;;;9.81;100.00;101239.09;6247645;23;20043;-83
2024/01/25 17:24:01;;;;;;;3.03;0.70;;;;;;;9.85;100.00;101241.00;6247011;23;20012;-84
2024/01/25 17:26:30;;;;;;;6.65;0.85;;;;;;;9.89;100.00;101244.56;6248493;23;20383;-84
2024/01/25 17:29:07;;;;;;;4.07;0.70;;;;;;;9.89;100.00;101235.94;6247561;23;20012;-83
2024/01/25 17:31:35;;;;;;;5.97;1.13;;;;;;;9.94;100.00;101250.81;6247787;23;20043;-84
2024/01/25 17:34:04;;;;;;;4.38;0.65;;;;;;;9.92;100.00;101241.22;6247048;23;20020;-84
2024/01/25 17:36:37;;;;;;;6.40;1.23;;;;;;;10.00;100.00;101257.94;6248586;23;20020;-85
2024/01/25 17:39:12;;;;;;;;;;;;;;;10.06;100.00;101264.22;6248728;23;20023;-84
2024/01/25 17:41:41;;;;;;;8.07;1.27;;;;;;;10.14;100.00;101271.41;6247005;23;19921;-84
2024/01/25 17:44:11;;;;;;;0.70;0.30;;;;;;;10.12;100.00;101270.44;6248028;23;20012;-83
2024/01/25 17:46:48;;;;;;;6.43;1.35;;;;;;;10.20;100.00;101289.75;6247450;23;20020;-84
2024/01/25 17:49:17;;;;;;;5.55;0.93;;;;;;;10.20;100.00;101284.59;6247611;23;20016;-83
2024/01/25 17:51:48;;;;;;;4.07;1.13;;;;;;;10.26;100.00;101288.28;6247638;23;20028;-83
2024/01/25 17:54:19;;;;;;;3.53;0.85;;;;;;;10.30;100.00;101302.25;6247812;23;20022;-84
2024/01/25 17:56:51;;;;;;;1.80;0.93;;;;;;;10.30;100.00;101296.19;6248890;23;20022;-85
2024/01/25 17:59:20;;;;;;;3.22;1.20;;;;;;;10.38;100.00;101312.91;6247935;23;20016;-85
2024/01/25 18:01:49;;;;;;;7.25;1.00;;;;;;;10.37;100.00;101313.72;6247418;23;20020;-84
2024/01/25 18:04:18;;;;;;;3.95;0.90;;;;;;;10.38;100.00;101313.78;6247225;23;20023;-85
2024/01/25 18:06:52;;;;;;;4.65;0.88;;;;;;;10.36;100.00;101310.25;6248951;23;20032;-84
2024/01/25 18:09:23;;;;;;;5.75;0.88;;;;;;;10.43;100.00;101327.78;6247458;23;20022;-84
2024/01/25 18:11:52;;;;;;;6.07;0.73;;;;;;;10.37;100.00;101324.06;6245755;23;20333;-85